Time;durP1;ratioP1;P1;durP2;ratioP2;P2;SDS_P1;SDS_P2;PMS_P1;PMS_P2;Temp;Humidity;BMP_temperature;BMP_pressure;BME280_temperature;BME280_humidity;BME280_pressure;Samples;Min_cycle;Max_cycle;Signal;HPM_P1;HPM_P2
2022/03/21 00:00:59;;;;;;;11.20;6.88;;;21.00;40.60;;;;;;4972656;28;20023;-70
2022/03/21 00:03:29;;;;;;;11.10;6.97;;;21.00;40.60;;;;;;4972084;28;20031;-71
2022/03/21 00:05:56;;;;;;;12.23;7.72;;;21.00;40.60;;;;;;4972204;28;20075;-70
2022/03/21 00:08:22;;;;;;;11.27;7.10;;;20.90;40.50;;;;;;4972456;28;20488;-70
2022/03/21 00:10:49;;;;;;;13.00;7.78;;;21.00;40.60;;;;;;4972153;28;20169;-70
2022/03/21 00:13:16;;;;;;;11.77;7.25;;;20.90;40.50;;;;;;4972025;28;20383;-70
2022/03/21 00:15:43;;;;;;;10.85;6.75;;;21.00;40.60;;;;;;4972018;28;20121;-71
2022/03/21 00:18:09;;;;;;;11.57;7.07;;;21.00;40.60;;;;;;4972223;28;20042;-71
2022/03/21 00:20:35;;;;;;;11.20;7.40;;;21.00;40.60;;;;;;4972317;28;20039;-71
2022/03/21 00:23:02;;;;;;;11.93;7.22;;;21.00;40.60;;;;;;4972155;28;20038;-71
2022/03/21 00:25:28;;;;;;;11.73;7.20;;;21.00;40.60;;;;;;4954751;28;20492;-71
2022/03/21 00:27:54;;;;;;;11.90;7.10;;;21.00;40.50;;;;;;4972208;28;20037;-71
2022/03/21 00:30:20;;;;;;;11.00;7.07;;;20.90;40.60;;;;;;4970954;28;20035;-71
2022/03/21 00:32:46;;;;;;;12.10;7.30;;;21.00;40.60;;;;;;4954478;28;20487;-70
2022/03/21 00:35:14;;;;;;;10.75;6.80;;;20.90;40.60;;;;;;4971209;28;20392;-71
2022/03/21 00:37:41;;;;;;;12.32;7.15;;;21.00;40.60;;;;;;4972014;28;20027;-70
2022/03/21 00:40:08;;;;;;;11.35;7.25;;;20.90;40.50;;;;;;4972012;28;20027;-71
2022/03/21 00:42:40;;;;;;;10.13;7.03;;;20.90;40.60;;;;;;4971942;28;20030;-70
2022/03/21 00:45:12;;;;;;;10.23;6.75;;;21.00;40.60;;;;;;4972075;28;20031;-71
2022/03/21 00:47:38;;;;;;;11.10;6.80;;;20.90;40.50;;;;;;4972009;28;20041;-71
2022/03/21 00:50:10;;;;;;;12.27;7.28;;;20.90;40.60;;;;;;4971987;28;20034;-71
2022/03/21 00:52:43;;;;;;;11.35;6.88;;;20.90;40.50;;;;;;4971639;28;20070;-71
2022/03/21 00:55:10;;;;;;;11.18;6.88;;;20.90;40.60;;;;;;4954642;28;20037;-71
2022/03/21 00:57:37;;;;;;;11.10;6.80;;;20.90;40.60;;;;;;4971663;28;20030;-71
2022/03/21 01:00:06;;;;;;;10.27;6.53;;;20.90;40.60;;;;;;4970758;28;20102;-71
2022/03/21 01:02:32;;;;;;;12.07;6.55;;;20.90;40.60;;;;;;4971621;28;20059;-70
2022/03/21 01:04:57;;;;;;;10.98;7.10;;;20.90;40.60;;;;;;4971135;28;20633;-71
2022/03/21 01:07:23;;;;;;;10.43;6.38;;;20.90;40.60;;;;;;4974382;28;20058;-71
2022/03/21 01:09:49;;;;;;;10.35;6.65;;;20.90;40.50;;;;;;4975510;28;20031;-71
2022/03/21 01:12:14;;;;;;;10.18;6.63;;;20.90;40.50;;;;;;4974963;28;20096;-70
2022/03/21 01:14:41;;;;;;;11.43;7.13;;;20.90;40.60;;;;;;4974275;28;20081;-71
2022/03/21 01:17:07;;;;;;;10.68;6.57;;;20.90;40.60;;;;;;4973846;28;20121;-71
2022/03/21 01:19:32;;;;;;;11.23;6.95;;;20.90;40.60;;;;;;4973914;28;20109;-71
2022/03/21 01:21:58;;;;;;;10.73;6.82;;;20.90;40.60;;;;;;4974858;28;20065;-71
2022/03/21 01:24:25;;;;;;;10.98;6.68;;;20.90;40.60;;;;;;4975255;28;20475;-71
2022/03/21 01:26:50;;;;;;;11.65;6.72;;;20.90;40.50;;;;;;4973883;28;20403;-70
2022/03/21 01:29:16;;;;;;;10.48;6.72;;;20.90;40.50;;;;;;4975029;28;20031;-71
2022/03/21 01:31:42;;;;;;;11.73;6.60;;;20.90;40.50;;;;;;4975028;28;20027;-71
2022/03/21 01:34:08;;;;;;;11.02;6.95;;;20.90;40.50;;;;;;4974511;28;20096;-71
2022/03/21 01:36:34;;;;;;;10.32;6.45;;;20.90;40.50;;;;;;4975066;28;20071;-70
2022/03/21 01:39:00;;;;;;;10.60;6.35;;;20.90;40.50;;;;;;4974965;28;20106;-71
2022/03/21 01:41:25;;;;;;;10.10;6.45;;;20.90;40.50;;;;;;4974956;28;20390;-71
2022/03/21 01:44:03;;;;;;;10.18;6.78;;;20.90;40.50;;;;;;4974930;28;20029;-71
2022/03/21 01:46:30;;;;;;;10.23;6.30;;;20.90;40.60;;;;;;4974617;28;20034;-71
2022/03/21 01:48:56;;;;;;;10.55;6.60;;;20.90;40.60;;;;;;4974904;28;20035;-71
2022/03/21 01:51:24;;;;;;;11.15;6.45;;;20.90;40.60;;;;;;4974664;28;20022;-71
2022/03/21 01:56:36;;;;;;;11.05;6.40;;;20.90;40.60;;;;;;4974497;28;20125;-71
2022/03/21 01:59:02;;;;;;;9.68;6.43;;;20.90;40.60;;;;;;4974469;28;20041;-71
2022/03/21 02:01:28;;;;;;;10.65;6.35;;;20.90;40.60;;;;;;4974503;28;20019;-71
2022/03/21 02:03:54;;;;;;;10.50;6.30;;;20.90;40.60;;;;;;4974025;28;20448;-70
2022/03/21 02:06:21;;;;;;;10.48;6.13;;;20.90;40.60;;;;;;4957117;28;20039;-71
2022/03/21 02:08:47;;;;;;;9.45;6.32;;;20.90;40.70;;;;;;4957345;28;20027;-70
2022/03/21 02:11:15;;;;;;;12.35;6.35;;;20.90;40.60;;;;;;4973186;28;20093;-71
2022/03/21 02:13:41;;;;;;;11.43;6.75;;;20.90;40.60;;;;;;4973631;28;20031;-70
2022/03/21 02:16:08;;;;;;;12.45;6.50;;;20.90;40.60;;;;;;4972748;28;20023;-71
2022/03/21 02:18:38;;;;;;;10.25;6.45;;;20.90;40.60;;;;;;4972813;28;20031;-70
2022/03/21 02:21:06;;;;;;;11.52;6.50;;;20.90;40.60;;;;;;4974171;28;20019;-70
2022/03/21 02:24:09;;;;;;;9.77;6.45;;;20.90;40.60;;;;;;4973623;28;20027;-71
2022/03/21 02:26:36;;;;;;;10.05;6.40;;;20.90;40.60;;;;;;4961693;28;20064;-71
2022/03/21 02:29:03;;;;;;;9.15;6.22;;;20.90;40.60;;;;;;4973900;28;20039;-70
2022/03/21 02:31:32;;;;;;;10.32;6.13;;;20.90;40.60;;;;;;4974009;28;20502;-71
2022/03/21 02:33:58;;;;;;;9.38;6.15;;;20.90;40.60;;;;;;4973450;28;20467;-71
2022/03/21 02:36:26;;;;;;;9.88;6.50;;;20.90;40.60;;;;;;4973762;28;20039;-71
2022/03/21 02:38:53;;;;;;;10.02;6.03;;;20.90;40.60;;;;;;4956520;28;20418;-71
2022/03/21 02:41:19;;;;;;;10.23;6.10;;;20.90;40.60;;;;;;4973720;28;20073;-71
2022/03/21 02:43:53;;;;;;;11.20;6.22;;;20.90;40.50;;;;;;4973257;28;20051;-71
2022/03/21 02:46:19;;;;;;;10.40;5.90;;;20.90;40.60;;;;;;4973743;28;20027;-71
2022/03/21 02:48:46;;;;;;;9.73;6.10;;;20.90;40.50;;;;;;4973496;28;20084;-71
2022/03/21 02:51:13;;;;;;;9.00;5.70;;;20.90;40.60;;;;;;4972305;28;20526;-71
2022/03/21 02:53:40;;;;;;;8.55;5.80;;;20.90;40.60;;;;;;4973119;28;20101;-70
2022/03/21 02:56:06;;;;;;;9.30;5.53;;;20.90;40.60;;;;;;4972238;28;20377;-71
2022/03/21 02:58:32;;;;;;;10.95;6.43;;;20.90;40.50;;;;;;4972931;28;20081;-70
2022/03/21 03:01:15;;;;;;;8.98;5.72;;;20.90;40.60;;;;;;4972140;28;20026;-71
2022/03/21 03:03:42;;;;;;;9.68;6.00;;;20.90;40.60;;;;;;4972802;28;20074;-71
2022/03/21 03:06:08;;;;;;;9.52;5.57;;;20.90;40.50;;;;;;4973299;28;20030;-70
2022/03/21 03:08:35;;;;;;;9.30;6.30;;;20.90;40.60;;;;;;4972242;28;20114;-70
2022/03/21 03:11:01;;;;;;;8.82;5.68;;;20.90;40.60;;;;;;4973259;28;20031;-70
2022/03/21 03:13:27;;;;;;;9.98;5.95;;;20.90;40.70;;;;;;4972747;28;20038;-71
2022/03/21 03:15:53;;;;;;;8.40;5.50;;;20.90;41.30;;;;;;4973303;28;20392;-71
2022/03/21 03:18:18;;;;;;;10.57;6.18;;;20.90;40.60;;;;;;4972765;28;20030;-71
2022/03/21 03:20:52;;;;;;;10.23;5.82;;;20.90;40.60;;;;;;4973098;28;20110;-71
2022/03/21 03:23:19;;;;;;;8.07;5.18;;;20.90;40.60;;;;;;4973002;28;20027;-71
2022/03/21 03:25:46;;;;;;;9.80;6.28;;;20.90;40.60;;;;;;4972891;28;20034;-70
2022/03/21 03:28:12;;;;;;;8.95;5.53;;;20.80;40.60;;;;;;4972195;28;20038;-71
2022/03/21 03:30:39;;;;;;;7.82;5.72;;;20.90;40.70;;;;;;4972741;28;20035;-71
2022/03/21 03:33:06;;;;;;;9.35;6.00;;;20.90;40.70;;;;;;4971396;28;20517;-71
2022/03/21 03:35:32;;;;;;;10.05;5.72;;;20.80;40.60;;;;;;4972888;28;20074;-71
2022/03/21 03:37:58;;;;;;;10.05;6.20;;;20.90;40.70;;;;;;4972752;28;20498;-70
2022/03/21 03:40:24;;;;;;;9.85;5.82;;;20.90;40.70;;;;;;4972729;28;20105;-70
2022/03/21 03:42:50;;;;;;;9.55;5.65;;;20.90;40.60;;;;;;4972654;28;20106;-71
2022/03/21 03:45:15;;;;;;;9.02;5.40;;;20.90;40.60;;;;;;4971392;28;20110;-71
2022/03/21 03:47:42;;;;;;;8.18;5.55;;;20.80;40.50;;;;;;4971258;28;20039;-70
2022/03/21 03:50:08;;;;;;;8.98;5.88;;;20.90;40.50;;;;;;4972531;28;20031;-70
2022/03/21 03:52:34;;;;;;;10.25;6.05;;;20.90;40.60;;;;;;4972469;28;20037;-71
2022/03/21 03:55:00;;;;;;;10.50;6.07;;;20.90;40.70;;;;;;4939844;28;20042;-71
2022/03/21 03:57:26;;;;;;;10.55;6.20;;;20.90;40.60;;;;;;4971362;28;20031;-71
2022/03/21 03:59:52;;;;;;;9.85;5.82;;;20.90;40.50;;;;;;4972454;28;20034;-70
2022/03/21 04:02:17;;;;;;;9.32;5.97;;;20.90;40.70;;;;;;4955217;28;20034;-70
2022/03/21 04:04:43;;;;;;;9.50;5.93;;;20.90;40.60;;;;;;4972419;28;20297;-71
2022/03/21 04:07:09;;;;;;;9.73;5.45;;;20.90;40.70;;;;;;4972697;28;20027;-71
2022/03/21 04:09:35;;;;;;;9.18;5.50;;;20.90;40.70;;;;;;4972522;28;20035;-71
2022/03/21 04:12:02;;;;;;;8.73;5.43;;;20.90;40.60;;;;;;4972156;28;20195;-70
2022/03/21 04:14:28;;;;;;;9.45;5.82;;;20.80;40.60;;;;;;4971190;28;20439;-71
2022/03/21 04:16:54;;;;;;;9.88;5.75;;;20.80;40.60;;;;;;4972156;28;20031;-71
2022/03/21 04:19:20;;;;;;;9.88;6.05;;;20.90;40.70;;;;;;4972336;28;20058;-71
2022/03/21 04:21:46;;;;;;;8.90;5.78;;;20.90;40.70;;;;;;4970876;28;20034;-71
2022/03/21 04:24:11;;;;;;;10.10;6.15;;;20.90;40.60;;;;;;4971973;28;20035;-71
2022/03/21 04:26:38;;;;;;;8.88;6.00;;;20.80;40.60;;;;;;4972528;28;20430;-71
2022/03/21 04:29:04;;;;;;;8.57;5.28;;;20.80;40.60;;;;;;4971774;28;20503;-71
2022/03/21 04:31:33;;;;;;;9.27;5.95;;;20.80;40.60;;;;;;4972344;28;20085;-70
2022/03/21 04:33:59;;;;;;;8.15;5.57;;;20.80;40.60;;;;;;4971904;28;20031;-71
2022/03/21 04:36:25;;;;;;;8.23;5.80;;;20.80;40.60;;;;;;4955192;28;20042;-71
2022/03/21 04:38:51;;;;;;;9.18;5.97;;;20.80;40.60;;;;;;4939594;28;20481;-71
2022/03/21 04:41:17;;;;;;;9.43;5.60;;;20.80;40.70;;;;;;4958552;28;20042;-70
2022/03/21 04:43:42;;;;;;;9.20;6.10;;;20.80;40.70;;;;;;4974210;28;20395;-71
2022/03/21 04:46:09;;;;;;;8.52;5.80;;;20.80;40.60;;;;;;4958680;28;20081;-71
2022/03/21 04:48:35;;;;;;;8.80;5.75;;;20.80;40.70;;;;;;4958646;28;20042;-71
2022/03/21 04:51:00;;;;;;;10.80;6.47;;;20.80;40.60;;;;;;4974783;28;20038;-71
2022/03/21 04:53:26;;;;;;;9.90;6.18;;;20.80;40.60;;;;;;4974354;28;20038;-71
2022/03/21 04:55:52;;;;;;;8.80;5.70;;;20.80;40.60;;;;;;4975693;28;20129;-71
2022/03/21 04:58:18;;;;;;;8.85;5.53;;;20.80;40.70;;;;;;4958357;28;20070;-71
2022/03/21 05:00:48;;;;;;;9.63;6.07;;;20.80;40.70;;;;;;4975552;28;20034;-71
2022/03/21 05:03:14;;;;;;;9.73;5.93;;;20.80;40.60;;;;;;4974113;28;20576;-71
2022/03/21 05:05:39;;;;;;;8.88;5.63;;;20.80;40.60;;;;;;4974202;28;20059;-71
2022/03/21 05:08:05;;;;;;;10.32;5.82;;;20.90;40.70;;;;;;4958208;28;20030;-71
2022/03/21 05:10:31;;;;;;;9.02;5.80;;;20.90;40.70;;;;;;4975336;28;20031;-71
2022/03/21 05:12:58;;;;;;;10.57;6.20;;;20.90;40.70;;;;;;4975066;28;20045;-71
2022/03/21 05:15:24;;;;;;;9.48;6.05;;;20.80;40.70;;;;;;4974154;28;20035;-71
2022/03/21 05:17:53;;;;;;;10.18;6.40;;;20.80;40.60;;;;;;4975171;28;20038;-71
2022/03/21 05:20:19;;;;;;;10.75;6.47;;;20.80;40.60;;;;;;4974278;28;20057;-71
2022/03/21 05:31:05;;;;;;;10.07;5.95;;;20.80;40.70;;;;;;4975111;28;20462;-71
2022/03/21 05:36:17;;;;;;;10.50;6.40;;;20.80;40.70;;;;;;4974916;28;20037;-71
2022/03/21 05:38:44;;;;;;;10.95;6.38;;;20.80;40.70;;;;;;4975020;28;20082;-71
2022/03/21 05:41:10;;;;;;;10.25;6.70;;;20.80;40.70;;;;;;4974777;28;20031;-71
2022/03/21 05:43:36;;;;;;;8.65;5.60;;;20.80;40.70;;;;;;4957231;28;20495;-71
2022/03/21 05:46:06;;;;;;;10.90;6.10;;;20.80;40.80;;;;;;4973382;28;20118;-71
2022/03/21 05:48:51;;;;;;;10.75;6.13;;;20.80;40.70;;;;;;4974445;28;20407;-71
2022/03/21 05:51:19;;;;;;;10.23;6.75;;;20.80;40.70;;;;;;4974097;28;20042;-71
2022/03/21 05:53:45;;;;;;;10.02;6.10;;;20.80;40.70;;;;;;4974139;28;20122;-71
2022/03/21 05:56:13;;;;;;;10.20;6.28;;;20.80;40.70;;;;;;4974862;28;20471;-71
2022/03/21 05:58:39;;;;;;;10.68;6.55;;;20.80;40.80;;;;;;4974456;28;20039;-72
2022/03/21 06:01:05;;;;;;;9.35;6.28;;;20.80;40.80;;;;;;4974363;28;20041;-72
2022/03/21 06:03:30;;;;;;;9.30;5.72;;;20.80;40.70;;;;;;4973060;28;20031;-72
2022/03/21 06:05:57;;;;;;;10.90;6.35;;;20.80;40.80;;;;;;4974246;28;20039;-72
2022/03/21 06:08:24;;;;;;;10.20;5.97;;;20.80;40.80;;;;;;4957105;28;20479;-72
2022/03/21 06:11:03;;;;;;;10.43;6.68;;;20.80;40.70;;;;;;4974592;28;20034;-72
2022/03/21 06:13:33;;;;;;;9.10;5.55;;;20.90;40.80;;;;;;4974085;28;20069;-71
2022/03/21 06:16:03;;;;;;;11.05;6.38;;;20.80;40.80;;;;;;4974228;28;20038;-72
2022/03/21 06:18:33;;;;;;;9.60;6.40;;;20.80;40.70;;;;;;4974023;28;20027;-72
2022/03/21 06:20:59;;;;;;;9.70;6.50;;;20.80;40.70;;;;;;4957048;28;20057;-72
2022/03/21 06:23:26;;;;;;;9.73;6.28;;;20.80;40.70;;;;;;4973623;28;20404;-72
2022/03/21 06:25:53;;;;;;;12.90;6.65;;;20.80;40.70;;;;;;4973017;28;20031;-71
2022/03/21 06:28:22;;;;;;;10.20;6.53;;;20.90;40.80;;;;;;4972793;28;20031;-71
2022/03/21 06:30:53;;;;;;;11.38;6.85;;;20.80;40.60;;;;;;4956526;28;20034;-71
2022/03/21 06:33:24;;;;;;;9.63;6.30;;;20.80;40.70;;;;;;4973485;28;20502;-71
2022/03/21 06:35:51;;;;;;;10.48;6.78;;;20.80;40.70;;;;;;4973836;28;20027;-71
2022/03/21 06:38:17;;;;;;;9.90;6.10;;;20.90;40.70;;;;;;4973837;28;20027;-71
2022/03/21 06:40:43;;;;;;;9.85;6.78;;;20.80;40.70;;;;;;4973705;28;20154;-71
2022/03/21 06:43:15;;;;;;;10.77;6.78;;;20.80;40.70;;;;;;4973652;28;20023;-71
2022/03/21 06:45:42;;;;;;;9.93;6.28;;;20.80;40.70;;;;;;4973539;28;20037;-71
2022/03/21 06:48:09;;;;;;;10.85;6.97;;;20.90;40.70;;;;;;4956590;28;20043;-70
2022/03/21 06:50:35;;;;;;;10.32;6.63;;;20.90;40.70;;;;;;4972290;28;20042;-71
2022/03/21 06:53:01;;;;;;;10.07;6.43;;;20.90;40.70;;;;;;4971776;28;20456;-71
2022/03/21 06:55:27;;;;;;;9.77;5.93;;;20.90;40.70;;;;;;4972222;28;20035;-71
2022/03/21 06:57:55;;;;;;;10.63;6.43;;;20.90;40.80;;;;;;4972002;28;20046;-70
2022/03/21 07:00:21;;;;;;;11.52;6.78;;;20.90;40.70;;;;;;4972281;28;20054;-71
2022/03/21 07:02:46;;;;;;;11.00;6.50;;;20.90;40.70;;;;;;4971970;28;20081;-71
2022/03/21 07:05:12;;;;;;;11.45;7.15;;;20.90;40.80;;;;;;4973159;28;20037;-70
2022/03/21 07:07:38;;;;;;;9.52;6.30;;;20.80;40.60;;;;;;4972840;28;20027;-71
2022/03/21 07:10:09;;;;;;;9.98;6.47;;;20.90;40.80;;;;;;4972013;28;20039;-71
2022/03/21 07:12:35;;;;;;;10.32;6.70;;;20.90;40.70;;;;;;4971959;28;20042;-71
2022/03/21 07:15:02;;;;;;;10.98;6.30;;;20.90;40.70;;;;;;4972980;28;20081;-71
2022/03/21 07:17:28;;;;;;;10.73;6.55;;;20.90;40.70;;;;;;4971763;28;20113;-71
2022/03/21 07:19:54;;;;;;;11.30;6.45;;;20.90;40.70;;;;;;4972226;28;20285;-71
2022/03/21 07:22:20;;;;;;;10.77;6.82;;;21.00;40.70;;;;;;4972763;28;20076;-71
2022/03/21 07:24:46;;;;;;;11.48;6.55;;;21.00;40.70;;;;;;4971813;28;20113;-71
2022/03/21 07:27:12;;;;;;;12.20;6.45;;;21.00;40.70;;;;;;4971711;28;20435;-71
2022/03/21 07:29:38;;;;;;;10.85;6.55;;;21.00;40.70;;;;;;4955626;28;20173;-71
2022/03/21 07:32:04;;;;;;;9.65;6.22;;;21.00;40.80;;;;;;4971842;28;20039;-71
2022/03/21 07:34:30;;;;;;;10.77;6.28;;;21.00;41.10;;;;;;4971343;28;20048;-71
2022/03/21 07:36:55;;;;;;;11.05;6.55;;;21.00;41.20;;;;;;4972722;28;20102;-71
2022/03/21 07:39:22;;;;;;;11.23;6.93;;;21.00;41.30;;;;;;4972866;28;20037;-71
2022/03/21 07:41:47;;;;;;;10.55;6.40;;;21.00;41.30;;;;;;4972530;28;20395;-71
2022/03/21 07:47:17;;;;;;;10.30;6.75;;;21.00;41.30;;;;;;4971186;28;20463;-71
2022/03/21 07:47:17;;;;;;;9.85;6.43;;;21.10;41.50;;;;;;4972573;28;20058;-71
2022/03/21 07:49:46;;;;;;;10.10;6.30;;;21.10;41.50;;;;;;4971610;28;20050;-71
2022/03/21 07:52:12;;;;;;;14.00;6.68;;;21.10;41.50;;;;;;4972240;28;20084;-71
2022/03/21 07:54:39;;;;;;;9.60;6.13;;;21.10;41.60;;;;;;4972472;28;20607;-71
2022/03/21 07:57:05;;;;;;;10.27;6.82;;;21.10;41.60;;;;;;4972873;28;20050;-71
2022/03/21 07:59:31;;;;;;;9.88;6.57;;;21.10;41.60;;;;;;4955259;28;20031;-71
2022/03/21 08:01:58;;;;;;;8.88;6.00;;;21.10;41.60;;;;;;4971184;28;20030;-71
2022/03/21 08:04:24;;;;;;;10.68;6.95;;;21.10;41.60;;;;;;4971130;28;20037;-71
2022/03/21 08:06:50;;;;;;;10.75;6.53;;;21.20;41.70;;;;;;4971195;28;20026;-71
2022/03/21 08:09:16;;;;;;;10.65;6.65;;;21.10;41.60;;;;;;4971357;28;20517;-71
2022/03/21 08:11:41;;;;;;;9.13;5.75;;;21.20;41.70;;;;;;4955234;28;20074;-71
2022/03/21 08:14:07;;;;;;;10.80;6.82;;;21.10;42.20;;;;;;4972082;28;20031;-71
2022/03/21 08:16:33;;;;;;;10.63;7.10;;;21.20;41.60;;;;;;4976640;28;20062;-71
2022/03/21 08:18:58;;;;;;;12.02;6.78;;;21.10;41.60;;;;;;4974845;28;20630;-71
2022/03/21 08:21:24;;;;;;;9.45;6.13;;;21.20;41.60;;;;;;4975152;28;20037;-71
2022/03/21 08:23:50;;;;;;;10.50;7.00;;;21.20;41.60;;;;;;4975533;28;20050;-71
2022/03/21 08:26:16;;;;;;;10.63;6.90;;;21.20;41.60;;;;;;4959221;28;20073;-71
2022/03/21 08:28:45;;;;;;;10.70;7.05;;;21.20;41.60;;;;;;4974932;28;20042;-71
2022/03/21 08:31:13;;;;;;;9.63;6.40;;;21.20;41.60;;;;;;4974951;28;20062;-71
2022/03/21 08:33:40;;;;;;;10.80;6.93;;;21.20;41.60;;;;;;4974701;28;20045;-71
2022/03/21 08:36:06;;;;;;;10.65;6.32;;;21.20;41.60;;;;;;4958912;28;20039;-71
2022/03/21 08:38:31;;;;;;;10.13;6.55;;;21.20;41.60;;;;;;4974651;28;20307;-71
2022/03/21 08:40:58;;;;;;;10.25;6.53;;;21.20;41.60;;;;;;4976056;28;20058;-71
2022/03/21 08:43:27;;;;;;;10.30;6.85;;;21.20;41.60;;;;;;4974176;28;20076;-71
2022/03/21 08:45:53;;;;;;;10.90;6.78;;;21.30;41.70;;;;;;4974811;28;20026;-71
2022/03/21 08:48:18;;;;;;;11.48;6.95;;;21.20;41.70;;;;;;4974788;28;20050;-71
2022/03/21 08:50:44;;;;;;;9.02;6.15;;;21.30;41.70;;;;;;4974614;28;20042;-71
2022/03/21 08:53:10;;;;;;;12.70;7.38;;;21.20;41.70;;;;;;4975410;28;20476;-71
2022/03/21 08:55:36;;;;;;;9.75;6.47;;;21.30;41.80;;;;;;4974665;28;20041;-71
2022/03/21 08:58:02;;;;;;;10.90;6.57;;;21.30;41.80;;;;;;4974437;28;20030;-70
2022/03/21 09:00:28;;;;;;;10.40;6.82;;;21.30;41.70;;;;;;4958690;28;20110;-70
2022/03/21 09:02:55;;;;;;;10.98;6.65;;;21.30;41.80;;;;;;4975171;28;20484;-70
2022/03/21 09:05:22;;;;;;;10.50;6.65;;;21.30;41.80;;;;;;4974065;28;20535;-71
2022/03/21 09:07:48;;;;;;;11.77;6.75;;;21.30;41.80;;;;;;4974199;28;20042;-71
2022/03/21 09:10:15;;;;;;;11.88;7.20;;;21.30;41.80;;;;;;4974074;28;20093;-71
2022/03/21 09:12:43;;;;;;;10.45;7.00;;;21.30;41.90;;;;;;4974268;28;20046;-72
2022/03/21 09:15:09;;;;;;;12.20;7.00;;;21.30;41.80;;;;;;4975275;28;20450;-72
2022/03/21 09:17:37;;;;;;;10.70;6.78;;;21.30;41.90;;;;;;4957909;28;20038;-72
2022/03/21 09:20:03;;;;;;;9.77;6.30;;;21.30;41.90;;;;;;4973916;28;20058;-72
2022/03/21 09:22:29;;;;;;;10.98;7.10;;;21.30;41.90;;;;;;4973797;28;20035;-72
2022/03/21 09:24:55;;;;;;;11.98;7.47;;;21.30;41.90;;;;;;4973431;28;20034;-71
2022/03/21 09:27:22;;;;;;;12.18;7.22;;;21.30;41.90;;;;;;4957533;28;20042;-71
2022/03/21 09:29:48;;;;;;;11.18;6.70;;;21.30;42.00;;;;;;4973921;28;20054;-71
2022/03/21 09:32:15;;;;;;;10.85;6.72;;;21.30;42.00;;;;;;4975286;28;20058;-72
2022/03/21 09:34:40;;;;;;;11.32;6.75;;;21.30;42.00;;;;;;4957885;28;20035;-72
2022/03/21 09:37:07;;;;;;;10.05;6.90;;;21.30;42.00;;;;;;4975716;28;20027;-72
2022/03/21 09:39:33;;;;;;;10.52;7.05;;;21.30;41.90;;;;;;4974900;28;20027;-71
2022/03/21 09:42:00;;;;;;;10.05;6.15;;;21.40;42.00;;;;;;4974543;28;20070;-71
2022/03/21 09:44:28;;;;;;;10.93;6.38;;;21.40;42.10;;;;;;4974735;28;20027;-71
2022/03/21 09:46:55;;;;;;;10.68;6.45;;;21.40;42.00;;;;;;4974859;28;20480;-71
2022/03/21 09:49:25;;;;;;;11.23;7.05;;;21.40;42.00;;;;;;4974644;28;20022;-71
2022/03/21 09:51:53;;;;;;;10.23;5.90;;;21.40;42.00;;;;;;4974501;28;20023;-71
2022/03/21 09:54:19;;;;;;;10.18;6.68;;;21.40;42.10;;;;;;4973584;28;20042;-71
2022/03/21 09:56:45;;;;;;;9.38;6.22;;;21.40;42.00;;;;;;4974620;28;20027;-71
2022/03/21 09:59:11;;;;;;;10.90;6.88;;;21.40;42.10;;;;;;4974493;28;20404;-71
2022/03/21 10:01:38;;;;;;;10.68;6.80;;;21.30;42.00;;;;;;4973589;28;20034;-71
2022/03/21 10:04:06;;;;;;;10.40;6.68;;;21.30;42.00;;;;;;4973907;28;20106;-71
2022/03/21 10:06:37;;;;;;;10.82;6.50;;;21.30;42.00;;;;;;4972943;28;20440;-71
2022/03/21 10:09:11;;;;;;;9.32;6.35;;;21.30;42.00;;;;;;4974448;28;20034;-71
2022/03/21 10:11:39;;;;;;;10.05;6.53;;;21.30;42.00;;;;;;4974389;28;20027;-71
2022/03/21 10:14:27;;;;;;;9.57;6.45;;;21.30;42.10;;;;;;4972933;28;20450;-71
2022/03/21 10:16:56;;;;;;;10.55;6.40;;;21.30;42.10;;;;;;4974246;28;20027;-71
2022/03/21 10:19:22;;;;;;;10.80;6.43;;;21.30;42.10;;;;;;4972965;28;20034;-71
2022/03/21 10:22:09;;;;;;;10.60;6.63;;;21.30;42.10;;;;;;4974267;28;20085;-71
2022/03/21 10:24:37;;;;;;;10.75;6.20;;;21.30;42.20;;;;;;4974172;28;20543;-71
2022/03/21 10:27:03;;;;;;;11.20;6.85;;;21.40;42.20;;;;;;4956591;28;20480;-71
2022/03/21 10:29:28;;;;;;;10.10;6.47;;;21.40;42.90;;;;;;4972851;28;20034;-71
2022/03/21 10:31:54;;;;;;;9.43;5.63;;;21.30;42.30;;;;;;4973673;28;20031;-71
2022/03/21 10:34:23;;;;;;;11.20;6.82;;;21.30;42.30;;;;;;4973892;28;20027;-71
2022/03/21 10:36:59;;;;;;;9.00;5.90;;;21.30;42.30;;;;;;4972673;28;20227;-72
2022/03/21 10:39:25;;;;;;;9.50;6.05;;;21.30;42.30;;;;;;4972667;28;20042;-71
2022/03/21 10:41:56;;;;;;;11.27;6.47;;;21.30;42.30;;;;;;4972779;28;20097;-72
2022/03/21 10:44:22;;;;;;;9.82;6.20;;;21.30;42.40;;;;;;4973687;28;20068;-72
2022/03/21 10:46:56;;;;;;;9.38;6.20;;;21.30;42.30;;;;;;4973579;28;20023;-72
2022/03/21 10:49:34;;;;;;;9.00;5.97;;;21.30;42.30;;;;;;4973689;28;20446;-71
2022/03/21 10:52:01;;;;;;;10.45;6.60;;;21.30;42.30;;;;;;4973277;28;20039;-71
2022/03/21 10:54:50;;;;;;;9.65;6.20;;;21.30;42.30;;;;;;4956213;28;20042;-71
2022/03/21 10:57:32;;;;;;;9.77;6.60;;;21.30;42.20;;;;;;4972299;28;20039;-71
2022/03/21 11:00:21;;;;;;;9.65;6.30;;;21.30;42.20;;;;;;4972532;28;20495;-71
2022/03/21 11:03:05;;;;;;;11.07;6.15;;;21.40;42.20;;;;;;4973067;28;20422;-71
2022/03/21 11:05:36;;;;;;;10.60;6.55;;;21.30;42.10;;;;;;4973242;28;20126;-71
2022/03/21 11:08:03;;;;;;;9.10;6.38;;;21.30;42.10;;;;;;4973395;28;20023;-71
2022/03/21 11:10:29;;;;;;;11.75;6.63;;;21.30;42.10;;;;;;4973360;28;20399;-71
2022/03/21 11:12:57;;;;;;;9.32;6.32;;;21.30;42.10;;;;;;4972787;28;20165;-71
2022/03/21 11:15:23;;;;;;;9.55;6.35;;;21.30;42.20;;;;;;4972861;28;20050;-72
2022/03/21 11:17:49;;;;;;;9.32;6.10;;;21.30;42.20;;;;;;4972679;28;20026;-72
2022/03/21 11:20:15;;;;;;;9.38;5.97;;;21.30;42.20;;;;;;4972701;28;20026;-72
2022/03/21 11:22:43;;;;;;;9.85;6.60;;;21.30;42.20;;;;;;4972725;28;20031;-71
2022/03/21 11:25:15;;;;;;;10.70;6.32;;;21.30;42.20;;;;;;4972970;28;20023;-72
2022/03/21 11:27:56;;;;;;;8.68;6.05;;;21.30;42.20;;;;;;4973019;28;20117;-71
2022/03/21 11:30:41;;;;;;;10.27;6.53;;;21.30;42.30;;;;;;4971933;28;20041;-71
2022/03/21 11:33:12;;;;;;;9.52;6.20;;;21.30;42.30;;;;;;4971457;28;20037;-71
2022/03/21 11:35:43;;;;;;;9.70;5.95;;;21.30;42.20;;;;;;4971536;28;20034;-72
2022/03/21 11:38:24;;;;;;;9.88;5.55;;;21.30;42.30;;;;;;4972560;28;20031;-71
2022/03/21 11:40:50;;;;;;;8.13;5.72;;;21.30;42.30;;;;;;4972782;28;20027;-72
2022/03/21 11:43:19;;;;;;;10.32;6.13;;;21.30;42.30;;;;;;4972351;28;20030;-71
2022/03/21 11:45:55;;;;;;;10.45;6.10;;;21.30;42.30;;;;;;4972494;28;20035;-71
2022/03/21 11:48:22;;;;;;;9.88;6.18;;;21.30;42.30;;;;;;4972332;28;20034;-71
2022/03/21 11:51:13;;;;;;;9.70;5.38;;;21.30;42.30;;;;;;4972535;28;20030;-71
2022/03/21 11:53:50;;;;;;;8.75;6.15;;;21.30;42.30;;;;;;4972099;28;20037;-71
2022/03/21 11:56:45;;;;;;;9.18;6.07;;;21.30;42.30;;;;;;4972547;28;20400;-71
2022/03/21 11:59:32;;;;;;;7.72;5.55;;;21.30;42.30;;;;;;4971203;28;20546;-71
2022/03/21 12:01:59;;;;;;;10.38;6.13;;;21.30;42.30;;;;;;4972033;28;20027;-71
2022/03/21 12:04:24;;;;;;;8.52;5.95;;;21.30;42.30;;;;;;4972504;28;20522;-71
2022/03/21 12:07:11;;;;;;;10.40;5.85;;;21.20;42.20;;;;;;4972399;28;20031;-72
2022/03/21 12:09:47;;;;;;;9.45;6.15;;;21.30;42.20;;;;;;4972487;28;20035;-71
2022/03/21 12:12:14;;;;;;;10.10;6.20;;;21.30;42.20;;;;;;4971607;28;20388;-72
2022/03/21 12:14:54;;;;;;;10.40;5.88;;;21.30;42.20;;;;;;4972350;28;20023;-72
2022/03/21 12:17:22;;;;;;;9.70;6.30;;;21.30;42.20;;;;;;4972283;28;20488;-72
2022/03/21 12:19:48;;;;;;;9.05;5.85;;;21.20;42.10;;;;;;4972329;28;20507;-72
2022/03/21 12:22:36;;;;;;;9.32;6.03;;;21.20;42.10;;;;;;4971857;28;20066;-72
2022/03/21 12:25:11;;;;;;;8.35;5.78;;;21.20;42.10;;;;;;4970980;28;20033;-72
2022/03/21 12:27:42;;;;;;;10.07;6.40;;;21.20;42.10;;;;;;4972378;28;20022;-72
2022/03/21 12:30:30;;;;;;;10.25;5.82;;;21.20;42.10;;;;;;4972192;28;20077;-72
2022/03/21 12:33:27;;;;;;;10.20;6.32;;;21.20;42.10;;;;;;4970599;28;20023;-72
2022/03/21 12:35:54;;;;;;;9.15;6.20;;;21.20;42.10;;;;;;4971837;28;20489;-72
2022/03/21 12:38:21;;;;;;;10.48;6.45;;;21.20;42.00;;;;;;4971855;28;20411;-71
2022/03/21 12:40:47;;;;;;;10.75;6.50;;;21.20;42.10;;;;;;4972159;28;20126;-71
2022/03/21 12:43:20;;;;;;;8.45;5.57;;;21.20;42.10;;;;;;4970613;28;20102;-71
2022/03/21 12:45:49;;;;;;;9.48;5.70;;;21.20;42.10;;;;;;4972273;28;20486;-72
2022/03/21 12:48:19;;;;;;;9.77;6.18;;;21.20;42.00;;;;;;4971079;28;20398;-71
2022/03/21 12:50:49;;;;;;;9.50;5.50;;;21.20;42.00;;;;;;4971438;28;20039;-71
2022/03/21 12:53:19;;;;;;;10.90;6.22;;;21.20;42.00;;;;;;4970324;28;20027;-71
2022/03/21 12:55:46;;;;;;;10.30;6.00;;;21.20;42.10;;;;;;4971998;28;20447;-72
2022/03/21 12:58:15;;;;;;;9.63;5.85;;;21.20;42.00;;;;;;4970478;28;20038;-71
2022/03/21 13:00:47;;;;;;;8.75;5.70;;;21.20;42.10;;;;;;4974091;28;20030;-71